createdAt,value
2019-06-26T00:01:23.682Z,26.00
2019-06-26T00:03:57.804Z,26.00
2019-06-26T00:06:31.787Z,26.10
2019-06-26T00:09:23.005Z,26.00
2019-06-26T00:11:54.557Z,26.10
2019-06-26T00:14:32.547Z,26.20
2019-06-26T00:17:06.598Z,26.20
2019-06-26T00:19:40.394Z,26.40
2019-06-26T00:22:12.588Z,26.40
2019-06-26T00:27:41.841Z,26.70
2019-06-26T00:30:14.199Z,26.80
2019-06-26T00:32:47.865Z,26.80
2019-06-26T00:35:21.676Z,26.80
2019-06-26T00:38:03.335Z,26.90
2019-06-26T00:40:43.216Z,26.90
2019-06-26T00:43:18.717Z,26.90
2019-06-26T00:45:55.762Z,27.00
2019-06-26T00:48:29.882Z,27.10
2019-06-26T00:51:06.358Z,27.10
2019-06-26T00:53:45.133Z,27.00
2019-06-26T00:56:18.407Z,26.90
2019-06-26T00:58:52.465Z,26.90
2019-06-26T01:01:26.520Z,27.00
2019-06-26T01:04:01.515Z,27.10
2019-06-26T01:06:47.044Z,27.10
2019-06-26T01:09:20.854Z,27.20
2019-06-26T01:11:54.761Z,27.20
2019-06-26T01:14:28.380Z,27.30
2019-06-26T01:17:06.474Z,27.30
2019-06-26T01:19:40.237Z,27.30
2019-06-26T01:22:14.145Z,27.30
2019-06-26T01:24:47.784Z,27.40
2019-06-26T01:27:19.916Z,27.40
2019-06-26T01:29:53.507Z,27.30
2019-06-26T01:32:25.946Z,27.20
2019-06-26T01:35:02.339Z,27.00
2019-06-26T01:37:39.017Z,26.90
2019-06-26T01:40:13.199Z,26.90
2019-06-26T01:42:47.178Z,26.90
2019-06-26T01:45:21.200Z,26.90
2019-06-26T01:48:05.345Z,26.90
2019-06-26T01:50:39.698Z,26.90
2019-06-26T01:53:17.182Z,26.90
2019-06-26T01:55:50.763Z,26.90
2019-06-26T01:58:23.190Z,26.90
2019-06-26T02:00:57.150Z,26.90
2019-06-26T02:03:31.087Z,26.90
2019-06-26T02:06:04.918Z,26.80
2019-06-26T02:08:37.046Z,26.70
2019-06-26T02:11:12.863Z,26.70
2019-06-26T02:13:46.783Z,26.70
2019-06-26T02:16:23.639Z,26.70
2019-06-26T02:18:57.980Z,26.70
2019-06-26T02:21:34.312Z,26.70
2019-06-26T02:24:07.667Z,26.70
2019-06-26T02:26:41.743Z,26.70
2019-06-26T02:29:15.722Z,26.60
2019-06-26T02:31:49.697Z,26.60
2019-06-26T02:34:26.001Z,26.60
2019-06-26T02:37:00.107Z,26.50
2019-06-26T02:39:34.195Z,26.60
2019-06-26T02:42:09.323Z,26.60
2019-06-26T02:44:52.938Z,26.60
2019-06-26T02:47:22.268Z,26.50
2019-06-26T02:49:59.214Z,26.50
2019-06-26T02:52:35.085Z,26.50
2019-06-26T02:55:10.058Z,26.50
2019-06-26T02:57:44.974Z,26.40
2019-06-26T03:00:19.547Z,26.40
2019-06-26T03:02:53.450Z,26.40
2019-06-26T03:05:27.047Z,26.40
2019-06-26T03:07:59.516Z,26.30
2019-06-26T03:10:33.545Z,26.30
2019-06-26T03:13:11.412Z,26.30
2019-06-26T03:15:50.511Z,26.30
2019-06-26T03:18:21.140Z,26.30
2019-06-26T03:20:58.521Z,26.30
2019-06-26T03:23:32.459Z,26.30
2019-06-26T03:26:06.563Z,26.30
2019-06-26T03:28:50.323Z,26.30
2019-06-26T03:31:22.819Z,26.30
2019-06-26T03:33:57.607Z,26.40
2019-06-26T03:36:35.975Z,26.40
2019-06-26T03:39:10.790Z,26.50
2019-06-26T03:41:45.631Z,26.60
2019-06-26T03:44:20.346Z,26.60
2019-06-26T03:47:00.154Z,26.60
2019-06-26T03:49:38.877Z,26.60
2019-06-26T03:52:12.193Z,26.70
2019-06-26T03:55:02.028Z,26.70
2019-06-26T03:57:35.519Z,26.70
2019-06-26T04:00:19.132Z,26.80
2019-06-26T04:02:51.942Z,26.80
2019-06-26T04:05:31.810Z,26.80
2019-06-26T04:08:05.765Z,26.80
2019-06-26T04:10:43.040Z,26.80
2019-06-26T04:13:20.759Z,26.70
2019-06-26T04:15:54.846Z,26.70
2019-06-26T04:18:28.838Z,26.70
2019-06-26T04:21:07.095Z,26.70
2019-06-26T04:23:40.554Z,26.60
2019-06-26T04:26:14.446Z,26.50
2019-06-26T04:28:51.121Z,26.40
2019-06-26T04:31:24.318Z,26.40
2019-06-26T04:33:58.393Z,26.50
2019-06-26T04:36:36.226Z,26.40
2019-06-26T04:39:11.299Z,26.40
2019-06-26T04:41:47.220Z,26.40
2019-06-26T04:44:30.543Z,26.30
2019-06-26T04:47:05.993Z,26.30
2019-06-26T04:49:40.257Z,26.20
2019-06-26T04:55:46.976Z,26.10
2019-06-26T04:58:23.031Z,26.10
2019-06-26T05:00:55.508Z,26.10
2019-06-26T05:03:30.283Z,26.20
2019-06-26T05:06:05.087Z,26.20
2019-06-26T05:08:39.099Z,26.10
2019-06-26T05:11:19.998Z,26.10
2019-06-26T05:13:55.981Z,26.20
2019-06-26T05:16:36.171Z,26.10
2019-06-26T05:19:09.940Z,26.10
2019-06-26T05:21:44.153Z,26.10
2019-06-26T05:24:18.268Z,26.10
2019-06-26T05:26:53.258Z,26.10
2019-06-26T05:29:27.876Z,26.10
2019-06-26T05:32:14.310Z,26.10
2019-06-26T05:34:45.261Z,26.00
2019-06-26T05:37:17.774Z,26.00
2019-06-26T05:39:54.835Z,26.10
2019-06-26T05:42:32.807Z,26.00
2019-06-26T05:45:10.752Z,26.00
2019-06-26T05:47:44.897Z,26.00
2019-06-26T05:50:22.909Z,26.00
2019-06-26T05:52:56.721Z,26.00
2019-06-26T05:55:33.642Z,26.00
2019-06-26T05:58:16.208Z,26.10
2019-06-26T06:00:58.864Z,26.00
2019-06-26T06:03:35.714Z,26.00
2019-06-26T06:06:09.691Z,26.00
2019-06-26T06:08:44.364Z,26.00
2019-06-26T06:11:24.467Z,26.00
2019-06-26T06:13:58.194Z,26.00
2019-06-26T06:16:45.922Z,26.00
2019-06-26T06:19:05.869Z,26.10
2019-06-26T06:21:39.669Z,26.10
2019-06-26T06:24:14.690Z,26.10
2019-06-26T06:27:08.202Z,26.20
2019-06-26T06:29:41.501Z,26.10
2019-06-26T06:32:17.587Z,26.10
2019-06-26T06:37:53.644Z,26.20
2019-06-26T06:40:30.398Z,26.10
2019-06-26T06:43:04.430Z,26.10
2019-06-26T06:45:43.158Z,26.10
2019-06-26T06:48:16.652Z,26.20
2019-06-26T06:50:50.681Z,26.30
2019-06-26T06:53:24.563Z,26.40
2019-06-26T06:55:59.795Z,26.60
2019-06-26T06:58:43.896Z,26.70
2019-06-26T07:01:13.950Z,26.90
2019-06-26T07:03:51.752Z,27.10
2019-06-26T07:06:33.706Z,27.30
2019-06-26T07:09:15.179Z,27.40
2019-06-26T07:11:49.188Z,27.50
2019-06-26T07:14:24.173Z,27.70
2019-06-26T07:17:01.411Z,27.80
2019-06-26T07:19:34.348Z,27.70
2019-06-26T07:22:18.983Z,27.80
2019-06-26T07:24:49.875Z,28.00
2019-06-26T07:27:28.687Z,28.20
2019-06-26T07:30:02.362Z,28.10
2019-06-26T07:32:40.491Z,28.20
2019-06-26T07:35:17.246Z,28.20
2019-06-26T07:37:51.132Z,28.20
2019-06-26T07:40:25.098Z,28.10
2019-06-26T07:43:01.420Z,28.00
2019-06-26T07:45:35.612Z,28.00
2019-06-26T07:48:14.640Z,27.90
2019-06-26T07:50:47.900Z,27.80
2019-06-26T07:53:23.672Z,27.80
2019-06-26T07:55:59.827Z,27.60
2019-06-26T07:58:48.393Z,27.70
2019-06-26T08:01:23.423Z,27.60
2019-06-26T08:04:07.475Z,27.60
2019-06-26T08:06:39.361Z,27.70
2019-06-26T08:09:14.121Z,27.80
2019-06-26T08:11:48.065Z,27.90
2019-06-26T08:14:25.613Z,28.10
2019-06-26T08:17:00.488Z,28.30
2019-06-26T08:19:35.390Z,28.50
2019-06-26T08:22:10.421Z,28.50
2019-06-26T08:24:45.356Z,28.50
2019-06-26T08:27:27.594Z,28.50
2019-06-26T08:30:02.595Z,28.60
2019-06-26T08:32:36.415Z,28.60
2019-06-26T08:35:17.579Z,28.60
2019-06-26T08:37:50.968Z,28.60
2019-06-26T08:40:30.198Z,28.40
2019-06-26T08:43:08.080Z,28.40
2019-06-26T08:45:43.847Z,28.50
2019-06-26T08:48:39.421Z,28.50
2019-06-26T08:51:14.930Z,28.60
2019-06-26T08:53:48.286Z,28.80
2019-06-26T08:56:24.780Z,29.10
2019-06-26T08:58:58.461Z,29.20
2019-06-26T09:01:37.223Z,29.40
2019-06-26T09:04:13.743Z,29.50
2019-06-26T09:06:47.802Z,29.60
2019-06-26T09:09:21.603Z,29.60
2019-06-26T09:11:56.505Z,29.80
2019-06-26T09:14:36.510Z,29.90
2019-06-26T09:17:05.279Z,29.90
2019-06-26T09:19:39.639Z,30.20
2019-06-26T09:22:18.202Z,30.20
2019-06-26T09:25:20.241Z,30.30
2019-06-26T09:27:36.763Z,30.20
2019-06-26T09:30:12.782Z,30.40
2019-06-26T09:32:46.811Z,30.40
2019-06-26T09:35:20.963Z,30.40
2019-06-26T09:37:57.830Z,30.20
2019-06-26T09:40:35.092Z,29.80
2019-06-26T09:43:09.000Z,29.70
2019-06-26T09:45:42.618Z,29.90
2019-06-26T09:48:15.062Z,29.80
2019-06-26T09:51:00.338Z,29.70
2019-06-26T09:53:47.042Z,29.80
2019-06-26T09:56:14.262Z,29.70
2019-06-26T09:58:53.740Z,29.50
2019-06-26T10:01:35.472Z,29.30
2019-06-26T10:04:09.736Z,29.20
2019-06-26T10:06:43.516Z,28.80
2019-06-26T10:09:21.643Z,28.80
2019-06-26T10:11:55.709Z,28.80
2019-06-26T10:14:46.145Z,28.80
2019-06-26T10:17:06.664Z,28.70
2019-06-26T10:19:40.895Z,28.70
2019-06-26T10:22:24.241Z,28.80
2019-06-26T10:24:53.121Z,28.70
2019-06-26T10:27:26.885Z,28.70
2019-06-26T10:30:15.926Z,28.70
2019-06-26T10:32:54.389Z,28.60
2019-06-26T10:35:28.027Z,28.40
2019-06-26T10:38:03.045Z,28.40
2019-06-26T10:40:38.034Z,28.30
2019-06-26T10:43:22.650Z,28.20
2019-06-26T10:45:56.801Z,28.10
2019-06-26T10:48:48.292Z,28.00
2019-06-26T10:51:21.986Z,28.00
2019-06-26T10:53:54.407Z,27.90
2019-06-26T10:56:30.589Z,27.90
2019-06-26T10:59:12.598Z,27.80
2019-06-26T11:01:45.844Z,27.70
2019-06-26T11:04:20.583Z,27.60
2019-06-26T11:07:08.956Z,27.60
2019-06-26T11:09:44.547Z,27.50
2019-06-26T11:12:18.641Z,27.40
2019-06-26T11:14:52.364Z,27.30
2019-06-26T11:17:26.073Z,27.30
2019-06-26T11:20:06.346Z,27.30
2019-06-26T11:22:53.940Z,27.20
2019-06-26T11:25:27.634Z,27.20
2019-06-26T11:28:07.636Z,27.10
2019-06-26T11:30:55.320Z,27.00
2019-06-26T11:33:32.127Z,27.00
2019-06-26T11:36:07.107Z,26.90
2019-06-26T11:38:51.770Z,26.80
2019-06-26T11:41:28.156Z,26.80
2019-06-26T11:43:58.987Z,26.80
2019-06-26T11:46:41.687Z,26.70
2019-06-26T11:49:13.628Z,26.60
2019-06-26T11:51:50.166Z,26.60
2019-06-26T11:54:34.588Z,26.60
2019-06-26T12:00:05.576Z,26.30
2019-06-26T12:05:30.424Z,26.30
2019-06-26T12:08:21.302Z,26.40
2019-06-26T12:10:55.028Z,26.40
2019-06-26T12:14:00.626Z,26.40
2019-06-26T12:16:22.306Z,26.40
2019-06-26T12:18:57.126Z,26.40
2019-06-26T12:21:32.608Z,26.30
2019-06-26T12:24:08.060Z,26.20
2019-06-26T12:26:46.144Z,26.20
2019-06-26T12:29:20.075Z,26.20
2019-06-26T12:31:53.902Z,26.10
2019-06-26T12:34:50.982Z,26.20
2019-06-26T12:37:17.709Z,26.10
2019-06-26T12:42:45.692Z,26.20
2019-06-26T12:45:22.064Z,26.20
2019-06-26T12:47:59.335Z,26.20
2019-06-26T12:50:36.161Z,26.20
2019-06-26T12:53:25.425Z,26.10
2019-06-26T12:56:34.283Z,26.10
2019-06-26T12:59:56.753Z,26.10
2019-06-26T13:02:09.939Z,26.10
2019-06-26T13:04:51.814Z,26.10
2019-06-26T13:07:36.114Z,26.20
2019-06-26T13:10:21.318Z,26.10
2019-06-26T13:13:04.364Z,26.10
2019-06-26T13:15:34.052Z,26.20
2019-06-26T13:18:16.548Z,26.10
2019-06-26T13:21:04.059Z,26.10
2019-06-26T13:23:34.428Z,26.10
2019-06-26T13:26:09.257Z,26.10
2019-06-26T13:28:46.161Z,26.10
2019-06-26T13:31:36.741Z,26.00
2019-06-26T13:34:11.633Z,26.00
2019-06-26T13:36:54.614Z,26.00
2019-06-26T13:39:26.524Z,25.90
2019-06-26T13:42:04.435Z,26.00
2019-06-26T13:44:38.215Z,26.00
2019-06-26T13:47:28.694Z,26.00
2019-06-26T13:50:02.903Z,26.00
2019-06-26T13:53:01.320Z,25.80
2019-06-26T13:55:22.368Z,25.80
2019-06-26T13:57:56.463Z,25.80
2019-06-26T14:00:32.748Z,25.80
2019-06-26T14:03:07.687Z,25.80
2019-06-26T14:05:42.780Z,25.80
2019-06-26T14:08:21.293Z,25.80
2019-06-26T14:13:47.831Z,25.70
2019-06-26T14:16:30.567Z,25.70
2019-06-26T14:19:25.924Z,25.70
2019-06-26T14:21:52.226Z,25.70
2019-06-26T14:24:27.727Z,25.70
2019-06-26T14:27:05.017Z,25.70
2019-06-26T14:30:05.719Z,25.60
2019-06-26T14:32:40.914Z,25.60
2019-06-26T14:35:34.284Z,25.60
2019-06-26T14:38:10.639Z,25.50
2019-06-26T14:40:44.621Z,25.50
2019-06-26T14:46:10.360Z,25.50
2019-06-26T14:48:57.939Z,25.40
2019-06-26T14:51:47.174Z,25.40
2019-06-26T14:54:21.032Z,25.40
2019-06-26T14:57:07.617Z,25.40
2019-06-26T14:59:53.575Z,25.50
2019-06-26T15:02:31.958Z,25.50
2019-06-26T15:05:08.366Z,25.60
2019-06-26T15:07:44.424Z,25.50
2019-06-26T15:10:19.306Z,25.50
2019-06-26T15:12:57.976Z,25.50
2019-06-26T15:15:36.072Z,25.60
2019-06-26T15:18:13.138Z,25.60
2019-06-26T15:21:09.339Z,25.60
2019-06-26T15:23:43.656Z,25.50
2019-06-26T15:26:19.921Z,25.50
2019-06-26T15:28:54.018Z,25.50
2019-06-26T15:31:42.881Z,25.50
2019-06-26T15:34:40.977Z,25.60
2019-06-26T15:37:22.860Z,25.60
2019-06-26T15:39:55.178Z,25.60
2019-06-26T15:42:37.928Z,25.60
2019-06-26T15:45:20.771Z,25.70
2019-06-26T15:47:56.235Z,25.60
2019-06-26T15:50:38.580Z,25.60
2019-06-26T15:53:23.558Z,25.50
2019-06-26T15:56:06.974Z,25.50
2019-06-26T16:01:53.296Z,25.40
2019-06-26T16:04:15.975Z,25.40
2019-06-26T16:06:56.321Z,25.40
2019-06-26T16:09:29.649Z,25.50
2019-06-26T16:12:15.781Z,25.50
2019-06-26T16:14:56.306Z,25.40
2019-06-26T16:17:50.850Z,25.50
2019-06-26T16:20:23.076Z,25.50
2019-06-26T16:23:08.917Z,25.50
2019-06-26T16:25:57.687Z,25.60
2019-06-26T16:31:21.094Z,25.50
2019-06-26T16:33:55.063Z,25.50
2019-06-26T16:36:31.647Z,25.60
2019-06-26T16:39:06.146Z,25.50
2019-06-26T16:41:41.427Z,25.40
2019-06-26T16:44:16.584Z,25.50
2019-06-26T16:49:49.224Z,25.50
2019-06-26T16:52:25.918Z,25.50
2019-06-26T16:55:04.345Z,25.50
2019-06-26T16:57:37.826Z,25.50
2019-06-26T17:00:12.242Z,25.60
2019-06-26T17:02:52.390Z,25.60
2019-06-26T17:05:43.124Z,25.60
2019-06-26T17:08:14.648Z,25.50
2019-06-26T17:10:48.716Z,25.50
2019-06-26T17:13:22.666Z,25.50
2019-06-26T17:16:05.845Z,25.50
2019-06-26T17:18:41.623Z,25.50
2019-06-26T17:21:16.499Z,25.60
2019-06-26T17:24:00.136Z,25.50
2019-06-26T17:26:32.814Z,25.50
2019-06-26T17:29:06.847Z,25.60
2019-06-26T17:31:45.163Z,25.60
2019-06-26T17:34:21.461Z,25.70
2019-06-26T17:36:55.284Z,25.70
2019-06-26T17:39:34.652Z,25.70
2019-06-26T17:42:09.306Z,25.60
2019-06-26T17:44:44.314Z,25.60
2019-06-26T17:47:20.349Z,25.60
2019-06-26T17:49:54.042Z,25.60
2019-06-26T17:52:26.952Z,25.60
2019-06-26T17:55:00.711Z,25.60
2019-06-26T17:57:34.610Z,25.60
2019-06-26T18:00:16.825Z,25.70
2019-06-26T18:02:50.673Z,25.60
2019-06-26T18:05:28.335Z,25.60
2019-06-26T18:08:05.068Z,25.60
2019-06-26T18:13:31.299Z,25.60
2019-06-26T18:16:04.640Z,25.60
2019-06-26T18:18:38.731Z,25.60
2019-06-26T18:21:13.549Z,25.60
2019-06-26T18:23:49.870Z,25.60
2019-06-26T18:26:23.763Z,25.70
2019-06-26T18:29:04.342Z,25.70
2019-06-26T18:31:38.570Z,25.60
2019-06-26T18:34:12.334Z,25.60
2019-06-26T18:36:46.421Z,25.60
2019-06-26T18:42:12.470Z,25.60
2019-06-26T18:44:46.522Z,25.60
2019-06-26T18:47:23.620Z,25.60
2019-06-26T18:49:57.427Z,25.60
2019-06-26T18:52:31.066Z,25.60
2019-06-26T18:55:03.442Z,25.60
2019-06-26T18:57:39.073Z,25.60
2019-06-26T19:00:16.200Z,25.60
2019-06-26T19:02:49.296Z,25.60
2019-06-26T19:05:24.064Z,25.60
2019-06-26T19:07:57.884Z,25.60
2019-06-26T19:10:32.952Z,25.60
2019-06-26T19:13:06.708Z,25.60
2019-06-26T19:15:39.153Z,25.60
2019-06-26T19:18:14.173Z,25.60
2019-06-26T19:20:47.967Z,25.60
2019-06-26T19:23:21.765Z,25.60
2019-06-26T19:25:54.034Z,25.50
2019-06-26T19:28:27.746Z,25.60
2019-06-26T19:31:01.560Z,25.50
2019-06-26T19:33:54.300Z,25.50
2019-06-26T19:36:29.042Z,25.50
2019-06-26T19:39:01.295Z,25.50
2019-06-26T19:41:36.331Z,25.50
2019-06-26T19:44:09.954Z,25.50
2019-06-26T19:46:44.002Z,25.50
2019-06-26T19:49:17.635Z,25.50
2019-06-26T19:51:51.477Z,25.50
2019-06-26T19:54:28.523Z,25.50
2019-06-26T19:57:00.175Z,25.50
2019-06-26T19:59:43.735Z,25.50
2019-06-26T20:02:17.616Z,25.50
2019-06-26T20:04:51.263Z,25.50
2019-06-26T20:07:25.093Z,25.40
2019-06-26T20:10:01.721Z,25.40
2019-06-26T20:12:34.040Z,25.40
2019-06-26T20:15:09.104Z,25.40
2019-06-26T20:17:42.958Z,25.50
2019-06-26T20:20:17.959Z,25.50
2019-06-26T20:22:52.651Z,25.40
2019-06-26T20:25:26.425Z,25.40
2019-06-26T20:28:15.506Z,25.50
2019-06-26T20:30:50.221Z,25.50
2019-06-26T20:33:23.821Z,25.50
2019-06-26T20:35:56.075Z,25.50
2019-06-26T20:38:29.853Z,25.50
2019-06-26T20:41:06.285Z,25.40
2019-06-26T20:43:40.505Z,25.50
2019-06-26T20:46:15.678Z,25.50
2019-06-26T20:48:49.604Z,25.50
2019-06-26T20:51:23.454Z,25.50
2019-06-26T20:54:00.296Z,25.50
2019-06-26T20:56:34.168Z,25.50
2019-06-26T20:59:08.329Z,25.50
2019-06-26T21:01:44.978Z,25.50
2019-06-26T21:04:19.712Z,25.50
2019-06-26T21:06:53.649Z,25.50
2019-06-26T21:09:27.243Z,25.50
2019-06-26T21:11:59.583Z,25.40
2019-06-26T21:14:33.172Z,25.50
2019-06-26T21:17:05.297Z,25.50
2019-06-26T21:19:39.161Z,25.40
2019-06-26T21:22:22.451Z,25.40
2019-06-26T21:24:54.462Z,25.40
2019-06-26T21:27:28.002Z,25.40
2019-06-26T21:30:01.809Z,25.40
2019-06-26T21:32:39.034Z,25.40
2019-06-26T21:35:11.599Z,25.40
2019-06-26T21:37:52.844Z,25.30
2019-06-26T21:40:26.811Z,25.40
2019-06-26T21:43:05.873Z,25.40
2019-06-26T21:45:39.812Z,25.30
2019-06-26T21:48:21.258Z,25.30
2019-06-26T21:50:55.253Z,25.30
2019-06-26T21:53:29.273Z,25.30
2019-06-26T21:56:22.933Z,25.30
2019-06-26T21:59:14.112Z,25.30
2019-06-26T22:02:05.334Z,25.40
2019-06-26T22:04:53.280Z,25.40
2019-06-26T22:07:44.289Z,25.30
2019-06-26T22:10:22.718Z,25.40
2019-06-26T22:12:57.182Z,25.30
2019-06-26T22:15:40.708Z,25.20
2019-06-26T22:18:14.585Z,25.20
2019-06-26T22:20:48.416Z,25.20
2019-06-26T22:23:22.438Z,25.20
2019-06-26T22:25:56.591Z,25.30
2019-06-26T22:28:30.812Z,25.30
2019-06-26T22:31:06.009Z,25.20
2019-06-26T22:33:42.836Z,25.20
2019-06-26T22:36:16.334Z,25.20
2019-06-26T22:38:50.156Z,25.20
2019-06-26T22:41:26.780Z,25.20
2019-06-26T22:44:01.033Z,25.30
2019-06-26T22:46:35.135Z,25.20
2019-06-26T22:49:09.398Z,25.30
2019-06-26T22:51:43.410Z,25.30
2019-06-26T22:54:19.886Z,25.30
2019-06-26T22:56:54.838Z,25.30
2019-06-26T22:59:29.836Z,25.30
2019-06-26T23:02:04.163Z,25.40
2019-06-26T23:04:38.302Z,25.40
2019-06-26T23:07:15.015Z,25.40
2019-06-26T23:09:48.699Z,25.40
2019-06-26T23:12:22.403Z,25.40
2019-06-26T23:14:59.484Z,25.40
2019-06-26T23:17:35.296Z,25.40
2019-06-26T23:20:23.423Z,25.40
2019-06-26T23:23:00.769Z,25.40
2019-06-26T23:25:37.458Z,25.40
2019-06-26T23:28:22.923Z,25.50
2019-06-26T23:30:51.458Z,25.60
2019-06-26T23:33:27.661Z,25.60
2019-06-26T23:36:08.621Z,25.60
2019-06-26T23:38:42.356Z,25.60
2019-06-26T23:41:18.087Z,25.70
2019-06-26T23:43:51.948Z,25.70
2019-06-26T23:46:25.879Z,25.70
2019-06-26T23:52:01.133Z,25.80
2019-06-26T23:54:34.932Z,25.90
2019-06-26T23:57:17.866Z,25.90
2019-06-26T23:59:51.945Z,25.90
